Frisange, Luxembourg
Current Conditions -  °F | °C
As of 9:50 AM on Monday 24 Nov 2014 (Local Time) from ELLX Reporting Station
Broken Clouds Broken Clouds  
Wind Chill: 44°   Ceiling: 2200
Heat Index: 48°   Visibility: 6mi
Dew Point: 43°   Wind: 10mph
Humidity: 82%   Direction: 10°N
Pressure: 30.21"   Gusts: NA
Location:  49.52°N, 6.19°E
Report Text: ELLX 240850Z 01009KT 350V050 9999 FEW012 BKN022 09/06 Q1023 NOSIG
Loading
Personal Weather Stations






























Interactive Weather Map New forecast layout! Learn more

10-Day Weather Forecast

Advertisements
Track Severe Weather on mobile